Time;durP1;ratioP1;P1;durP2;ratioP2;P2;SDS_P1;SDS_P2;PMS_P1;PMS_P2;Temp;Humidity;BMP_temperature;BMP_pressure;BME280_temperature;BME280_humidity;BME280_pressure;Samples;Min_cycle;Max_cycle;Signal;HPM_P1;HPM_P2
2023/12/25 00:00:32;;;;;;;3.45;2.83;;;23.00;70.50;;;;;;6222412;28;83650;-65
2023/12/25 00:03:34;;;;;;;3.00;2.60;;;23.00;70.30;;;;;;6229101;28;83019;-66
2023/12/25 00:06:36;;;;;;;3.83;2.88;;;23.00;70.20;;;;;;6217355;28;84018;-65
2023/12/25 00:09:38;;;;;;;4.43;3.22;;;22.90;70.10;;;;;;6219720;28;84969;-65
2023/12/25 00:12:42;;;;;;;3.97;3.08;;;22.90;70.10;;;;;;6224228;28;82925;-66
2023/12/25 00:15:43;;;;;;;4.95;3.35;;;23.00;70.20;;;;;;6219570;28;84082;-65
2023/12/25 00:18:45;;;;;;;3.75;2.90;;;22.90;70.50;;;;;;6219310;28;83001;-65
2023/12/25 00:21:47;;;;;;;3.92;3.38;;;22.90;70.30;;;;;;6220751;28;84005;-65
2023/12/25 00:24:49;;;;;;;3.72;3.10;;;22.90;70.30;;;;;;6221655;28;84031;-65
2023/12/25 00:27:53;;;;;;;3.63;3.20;;;22.90;70.50;;;;;;6223741;28;84078;-66
2023/12/25 00:30:55;;;;;;;4.90;3.58;;;22.90;70.30;;;;;;6219479;28;83323;-65
2023/12/25 00:33:57;;;;;;;4.38;3.58;;;22.90;71.30;;;;;;6229939;28;83973;-65
2023/12/25 00:36:59;;;;;;;4.22;3.55;;;22.90;70.40;;;;;;6224669;28;84513;-65
2023/12/25 00:40:01;;;;;;;4.25;3.65;;;22.80;70.50;;;;;;6218512;28;85219;-65
2023/12/25 00:43:04;;;;;;;4.55;3.53;;;22.80;70.50;;;;;;6227176;28;84177;-65
2023/12/25 00:46:07;;;;;;;4.15;3.42;;;22.80;70.50;;;;;;6219295;28;83276;-65
2023/12/25 00:49:09;;;;;;;3.95;3.55;;;22.80;70.50;;;;;;6228878;28;84386;-65
2023/12/25 00:52:14;;;;;;;5.25;3.60;;;22.80;70.50;;;;;;6221509;28;83911;-64
2023/12/25 00:55:16;;;;;;;4.07;3.35;;;22.80;70.50;;;;;;6222670;28;84587;-65
2023/12/25 00:58:20;;;;;;;4.70;3.67;;;22.80;70.90;;;;;;6225781;28;83983;-64
2023/12/25 01:01:22;;;;;;;16.70;11.02;;;22.90;70.90;;;;;;6221208;28;83257;-65
2023/12/25 01:04:24;;;;;;;9.45;6.82;;;22.80;71.00;;;;;;6223444;28;84082;-65
2023/12/25 01:07:26;;;;;;;8.50;5.70;;;22.80;71.20;;;;;;6222863;28;84102;-65
2023/12/25 01:10:28;;;;;;;6.95;5.28;;;22.80;70.90;;;;;;6219901;28;84913;-64
2023/12/25 01:13:32;;;;;;;6.20;5.03;;;22.80;70.80;;;;;;6216637;28;83816;-65
2023/12/25 01:16:33;;;;;;;5.20;4.20;;;22.80;70.80;;;;;;6214858;28;84232;-65
2023/12/25 01:19:35;;;;;;;5.18;4.22;;;22.80;70.80;;;;;;6216908;28;84025;-65
2023/12/25 01:22:37;;;;;;;5.20;4.63;;;22.80;70.80;;;;;;6218549;28;84531;-65
2023/12/25 01:25:39;;;;;;;5.88;4.18;;;22.80;70.80;;;;;;6227317;28;84434;-65
2023/12/25 01:28:43;;;;;;;5.97;4.05;;;22.80;70.80;;;;;;6225912;28;84116;-65
2023/12/25 01:31:45;;;;;;;4.57;4.00;;;22.80;70.90;;;;;;6219238;28;83267;-64
2023/12/25 01:34:47;;;;;;;4.18;3.78;;;22.80;71.20;;;;;;6228239;28;82845;-64
2023/12/25 01:37:50;;;;;;;4.07;3.67;;;22.80;71.00;;;;;;6210042;28;82946;-64
2023/12/25 01:40:52;;;;;;;4.38;3.70;;;22.80;70.90;;;;;;6225671;28;85090;-64
2023/12/25 01:43:56;;;;;;;5.60;3.42;;;22.80;70.70;;;;;;6220223;28;84528;-64
2023/12/25 01:46:58;;;;;;;5.28;3.72;;;22.70;70.60;;;;;;6214649;28;84068;-64
2023/12/25 01:50:02;;;;;;;5.45;3.65;;;22.70;70.60;;;;;;6223745;28;84439;-64
2023/12/25 01:53:05;;;;;;;4.68;3.50;;;22.70;70.60;;;;;;6221378;28;84190;-64
2023/12/25 01:56:08;;;;;;;4.47;3.47;;;22.70;70.70;;;;;;6219624;28;82916;-64
2023/12/25 01:59:11;;;;;;;4.20;3.28;;;22.70;70.80;;;;;;6211694;28;84197;-64
2023/12/25 02:02:14;;;;;;;4.18;3.50;;;22.70;70.80;;;;;;6220944;28;83267;-64
2023/12/25 02:05:17;;;;;;;3.95;3.30;;;22.70;70.80;;;;;;6212446;28;83485;-64
2023/12/25 02:08:19;;;;;;;3.75;3.33;;;22.60;70.80;;;;;;6225014;28;84149;-64
2023/12/25 02:11:22;;;;;;;4.88;3.40;;;22.60;70.80;;;;;;6222805;28;85017;-64
2023/12/25 02:14:25;;;;;;;4.28;3.13;;;22.60;70.80;;;;;;6217383;28;84040;-64
2023/12/25 02:17:29;;;;;;;4.50;3.50;;;22.60;70.90;;;;;;6226221;28;83185;-64
2023/12/25 02:20:33;;;;;;;6.47;4.05;;;22.60;70.80;;;;;;6218780;28;83637;-64
2023/12/25 02:23:38;;;;;;;3.67;3.25;;;22.60;70.90;;;;;;6220602;28;84006;-65
2023/12/25 02:26:41;;;;;;;5.85;3.78;;;22.60;70.90;;;;;;6222165;28;82996;-64
2023/12/25 02:29:43;;;;;;;4.70;3.00;;;22.50;70.90;;;;;;6220660;28;83971;-64
2023/12/25 02:32:45;;;;;;;4.40;3.17;;;22.50;71.00;;;;;;6226969;28;83326;-64
2023/12/25 02:35:47;;;;;;;3.78;3.00;;;22.60;71.00;;;;;;6225349;28;84066;-64
2023/12/25 02:38:49;;;;;;;5.03;3.50;;;22.50;70.90;;;;;;6221854;28;82890;-64
2023/12/25 02:41:52;;;;;;;4.45;3.35;;;22.50;70.90;;;;;;6221271;28;85015;-64
2023/12/25 02:44:54;;;;;;;4.05;3.05;;;22.50;70.90;;;;;;6221676;28;82950;-64
2023/12/25 02:47:56;;;;;;;3.72;2.97;;;22.50;70.90;;;;;;6227534;28;83225;-65
2023/12/25 02:50:58;;;;;;;2.80;2.50;;;22.50;70.90;;;;;;6230748;28;84221;-64
2023/12/25 02:54:00;;;;;;;5.13;3.28;;;22.50;70.90;;;;;;6215425;28;83996;-64
2023/12/25 02:57:04;;;;;;;3.95;2.90;;;22.50;70.90;;;;;;6209618;28;84127;-64
2023/12/25 03:00:07;;;;;;;3.85;3.17;;;22.50;70.90;;;;;;6226029;28;84793;-64
2023/12/25 03:03:09;;;;;;;3.22;2.80;;;22.50;71.00;;;;;;6230382;28;83467;-64
2023/12/25 03:06:11;;;;;;;4.05;3.08;;;22.50;71.00;;;;;;6229393;28;83987;-65
2023/12/25 03:09:13;;;;;;;3.70;2.90;;;22.50;71.00;;;;;;6229115;28;84070;-64
2023/12/25 03:12:17;;;;;;;3.90;2.83;;;22.50;71.00;;;;;;6225839;28;84950;-64
2023/12/25 03:15:19;;;;;;;3.50;2.85;;;22.40;70.90;;;;;;6222437;28;84374;-64
2023/12/25 03:18:20;;;;;;;4.07;3.00;;;22.40;71.00;;;;;;6229099;28;83995;-64
2023/12/25 03:21:22;;;;;;;3.10;2.80;;;22.40;71.00;;;;;;6215425;28;84116;-65
2023/12/25 03:24:24;;;;;;;2.97;2.67;;;22.40;71.00;;;;;;6219626;28;83328;-64
2023/12/25 03:27:28;;;;;;;3.42;2.75;;;22.40;71.00;;;;;;6226892;28;83943;-65
2023/12/25 03:30:30;;;;;;;3.72;2.90;;;22.40;71.00;;;;;;6213852;28;84154;-64
2023/12/25 03:33:32;;;;;;;2.85;2.53;;;22.40;71.10;;;;;;6223911;28;83334;-65
2023/12/25 03:36:33;;;;;;;3.35;2.70;;;22.40;71.10;;;;;;6227551;28;84045;-65
2023/12/25 03:39:35;;;;;;;3.50;2.63;;;22.40;71.00;;;;;;6234185;28;84327;-64
2023/12/25 03:42:39;;;;;;;3.08;2.58;;;22.30;71.00;;;;;;6225725;28;84975;-65
2023/12/25 03:45:41;;;;;;;2.80;2.50;;;22.30;71.00;;;;;;6218892;28;84075;-65
2023/12/25 03:48:43;;;;;;;3.22;2.80;;;22.30;71.00;;;;;;6222616;28;84090;-65
2023/12/25 03:51:45;;;;;;;3.20;2.60;;;22.40;71.00;;;;;;6228156;28;82980;-65
2023/12/25 03:54:47;;;;;;;3.72;2.72;;;22.30;71.00;;;;;;6215813;28;84066;-65
2023/12/25 03:57:50;;;;;;;3.60;2.72;;;22.40;71.00;;;;;;6221688;28;83964;-65
2023/12/25 04:00:52;;;;;;;4.05;2.70;;;22.40;71.00;;;;;;6225763;28;83999;-64
2023/12/25 04:03:54;;;;;;;3.42;2.60;;;22.40;71.10;;;;;;6227043;28;83330;-65
2023/12/25 04:06:56;;;;;;;2.63;2.40;;;22.40;71.10;;;;;;6217384;28;84175;-64
2023/12/25 04:09:58;;;;;;;2.40;2.20;;;22.30;71.90;;;;;;6226166;28;84490;-64
2023/12/25 04:13:02;;;;;;;3.80;2.70;;;22.30;71.00;;;;;;6220296;28;84987;-64
2023/12/25 04:16:05;;;;;;;2.92;2.22;;;22.30;71.00;;;;;;6219616;28;83697;-64
2023/12/25 04:19:07;;;;;;;3.28;2.30;;;22.30;71.10;;;;;;6217969;28;83969;-64
2023/12/25 04:22:09;;;;;;;3.08;2.40;;;22.30;71.10;;;;;;6216881;28;82927;-65
2023/12/25 04:25:11;;;;;;;2.63;2.17;;;22.30;71.10;;;;;;6228681;28;82951;-64
2023/12/25 04:28:14;;;;;;;3.22;2.45;;;22.30;71.10;;;;;;6209737;28;83993;-64
2023/12/25 04:31:17;;;;;;;3.25;2.45;;;22.20;71.10;;;;;;6210254;28;84298;-64
2023/12/25 04:34:18;;;;;;;3.40;2.47;;;22.20;71.10;;;;;;6222198;28;83559;-64
2023/12/25 04:37:20;;;;;;;2.50;2.22;;;22.20;71.00;;;;;;6246142;28;84038;-64
2023/12/25 04:40:22;;;;;;;3.08;2.45;;;22.20;71.10;;;;;;6235609;28;84046;-64
2023/12/25 04:43:26;;;;;;;2.47;1.98;;;22.20;71.10;;;;;;6215655;28;84972;-65
2023/12/25 04:46:28;;;;;;;2.95;2.25;;;22.20;71.10;;;;;;6213427;28;84161;-64
2023/12/25 04:49:30;;;;;;;2.20;2.00;;;22.20;71.10;;;;;;6229328;28;82917;-64
2023/12/25 04:52:32;;;;;;;2.58;2.20;;;22.20;71.10;;;;;;6220283;28;83980;-64
2023/12/25 04:55:34;;;;;;;2.65;2.17;;;22.20;71.00;;;;;;6217136;28;84103;-64
2023/12/25 04:58:38;;;;;;;3.20;2.10;;;22.30;71.00;;;;;;6213140;28;84183;-64
2023/12/25 05:01:40;;;;;;;4.13;2.55;;;22.30;71.00;;;;;;6211073;28;89209;-64
2023/12/25 05:04:41;;;;;;;2.78;2.25;;;22.30;70.90;;;;;;6219498;28;88744;-64
2023/12/25 05:07:44;;;;;;;4.07;2.25;;;22.30;70.80;;;;;;6207963;28;89045;-64
2023/12/25 05:10:46;;;;;;;2.65;2.10;;;22.30;70.80;;;;;;6210815;28;89144;-64
2023/12/25 05:13:49;;;;;;;2.28;2.08;;;22.30;70.80;;;;;;6228348;28;89283;-64
2023/12/25 05:16:51;;;;;;;2.35;2.15;;;22.30;70.80;;;;;;6209281;28;90108;-64
2023/12/25 05:19:53;;;;;;;2.20;2.00;;;22.30;70.70;;;;;;6213488;28;87978;-64
2023/12/25 05:22:55;;;;;;;2.35;2.00;;;22.30;71.60;;;;;;6221167;28;89275;-64
2023/12/25 05:25:57;;;;;;;2.55;2.13;;;22.30;70.70;;;;;;6209619;28;88972;-64
2023/12/25 05:29:00;;;;;;;4.00;2.55;;;22.30;70.70;;;;;;6216767;28;89081;-64
2023/12/25 05:32:02;;;;;;;3.08;2.20;;;22.30;70.70;;;;;;6231000;28;88259;-64
2023/12/25 05:35:06;;;;;;;3.03;2.28;;;22.30;70.70;;;;;;6223440;28;87197;-64
2023/12/25 05:38:08;;;;;;;2.45;2.10;;;22.30;70.80;;;;;;6217784;28;87851;-64
2023/12/25 05:41:09;;;;;;;2.50;2.30;;;22.30;70.80;;;;;;6221666;28;89364;-64
2023/12/25 05:44:13;;;;;;;3.05;2.25;;;22.30;70.80;;;;;;6224517;28;90025;-64
2023/12/25 05:47:15;;;;;;;2.88;2.10;;;22.30;71.00;;;;;;6222818;28;89140;-64
2023/12/25 05:50:17;;;;;;;2.83;2.30;;;22.30;71.00;;;;;;6217503;28;89340;-65
2023/12/25 05:53:19;;;;;;;3.10;2.40;;;22.20;70.90;;;;;;6218448;28;89185;-64
2023/12/25 05:56:21;;;;;;;3.47;2.53;;;22.30;71.00;;;;;;6218176;28;88974;-64
2023/12/25 05:59:24;;;;;;;2.53;2.22;;;22.30;71.00;;;;;;6219024;28;88281;-64
2023/12/25 06:02:26;;;;;;;2.50;2.15;;;22.30;71.00;;;;;;6223989;28;89175;-64
2023/12/25 06:05:28;;;;;;;2.60;2.30;;;22.30;71.00;;;;;;6226144;28;88507;-64
2023/12/25 06:08:30;;;;;;;2.70;2.25;;;22.30;71.00;;;;;;6223428;28;89233;-64
2023/12/25 06:11:32;;;;;;;2.90;2.53;;;22.30;71.00;;;;;;6208073;28;89061;-64
2023/12/25 06:14:36;;;;;;;2.75;2.47;;;22.30;71.00;;;;;;6218063;28;90543;-64
2023/12/25 06:17:38;;;;;;;2.90;2.60;;;22.20;71.00;;;;;;6217647;28;89003;-64
2023/12/25 06:20:40;;;;;;;2.85;2.53;;;22.20;71.00;;;;;;6218919;28;87913;-64
2023/12/25 06:23:42;;;;;;;5.07;3.15;;;22.20;71.00;;;;;;6205864;28;89126;-64
2023/12/25 06:26:44;;;;;;;4.30;2.92;;;22.20;71.10;;;;;;6228510;28;89152;-64
2023/12/25 06:29:47;;;;;;;3.03;2.63;;;22.20;71.10;;;;;;6206186;28;89051;-64
2023/12/25 06:32:49;;;;;;;2.95;2.60;;;22.20;71.10;;;;;;6227999;28;89059;-64
2023/12/25 06:35:52;;;;;;;2.50;2.30;;;22.10;71.10;;;;;;6215876;28;88288;-64
2023/12/25 06:38:54;;;;;;;2.50;2.30;;;22.20;71.20;;;;;;6228914;28;91580;-64
2023/12/25 06:41:56;;;;;;;3.15;2.72;;;22.10;71.10;;;;;;6227425;28;89128;-64
2023/12/25 06:44:59;;;;;;;2.90;2.50;;;22.10;71.20;;;;;;6218157;28;88945;-64
2023/12/25 06:48:01;;;;;;;3.88;2.80;;;22.10;71.20;;;;;;6210283;28;89129;-64
2023/12/25 06:51:03;;;;;;;2.75;2.50;;;22.10;71.10;;;;;;6217322;28;89329;-64
2023/12/25 06:54:06;;;;;;;3.40;2.67;;;22.10;71.10;;;;;;6209479;28;89031;-65
2023/12/25 06:57:08;;;;;;;2.88;2.45;;;22.20;71.20;;;;;;6231106;28;89068;-64
2023/12/25 07:00:12;;;;;;;3.60;2.40;;;22.10;71.20;;;;;;6220063;28;90421;-64
2023/12/25 07:03:14;;;;;;;3.08;2.60;;;22.10;71.10;;;;;;6223228;28;88002;-64
2023/12/25 07:06:16;;;;;;;2.90;2.60;;;22.10;71.10;;;;;;6216758;28;88327;-64
2023/12/25 07:09:19;;;;;;;5.93;3.65;;;22.10;71.20;;;;;;6222529;28;89037;-64
2023/12/25 07:12:21;;;;;;;3.05;2.55;;;22.10;71.10;;;;;;6229218;28;89045;-64
2023/12/25 07:15:24;;;;;;;3.22;2.60;;;22.20;71.10;;;;;;6220140;28;90974;-64
2023/12/25 07:18:26;;;;;;;2.78;2.42;;;22.10;71.10;;;;;;6225111;28;89095;-64
2023/12/25 07:21:28;;;;;;;3.33;2.65;;;22.10;71.10;;;;;;6231605;28;89117;-64
2023/12/25 07:24:30;;;;;;;2.78;2.50;;;22.10;71.10;;;;;;6228637;28;89095;-64
2023/12/25 07:27:32;;;;;;;2.80;2.50;;;22.10;71.10;;;;;;6232874;28;89266;-64
2023/12/25 07:30:35;;;;;;;3.35;2.72;;;22.10;71.10;;;;;;6222092;28;89167;-64
2023/12/25 07:33:38;;;;;;;2.78;2.50;;;22.10;71.10;;;;;;6221113;28;89407;-64
2023/12/25 07:36:39;;;;;;;3.30;2.80;;;22.10;71.10;;;;;;6222206;28;89667;-64
2023/12/25 07:39:42;;;;;;;2.88;2.53;;;22.10;71.20;;;;;;6227567;28;92082;-64
2023/12/25 07:42:45;;;;;;;2.97;2.42;;;22.10;71.20;;;;;;6214507;28;88403;-64
2023/12/25 07:45:48;;;;;;;3.60;2.78;;;22.10;71.10;;;;;;6214576;28;90308;-64
2023/12/25 07:48:50;;;;;;;3.33;2.67;;;22.10;71.10;;;;;;6225945;28;89314;-64
2023/12/25 07:51:52;;;;;;;2.53;2.33;;;22.00;71.10;;;;;;6225684;28;90325;-64
2023/12/25 07:54:54;;;;;;;2.72;2.47;;;22.00;71.10;;;;;;6212707;28;89144;-64
2023/12/25 07:57:56;;;;;;;3.60;2.67;;;22.00;71.10;;;;;;6221466;28;88356;-64
2023/12/25 08:01:00;;;;;;;3.30;2.80;;;22.00;71.10;;;;;;6208422;28;88994;-64
2023/12/25 08:04:02;;;;;;;3.55;2.83;;;22.10;71.10;;;;;;6224751;28;88961;-64
2023/12/25 08:07:04;;;;;;;3.00;2.60;;;22.10;71.10;;;;;;6229621;28;88238;-64
2023/12/25 08:10:07;;;;;;;3.65;2.83;;;22.10;72.00;;;;;;6226768;28;89024;-64
2023/12/25 08:13:09;;;;;;;3.03;2.55;;;22.10;71.10;;;;;;6226314;28;89463;-64
2023/12/25 08:16:12;;;;;;;2.95;2.58;;;22.10;71.00;;;;;;6210358;28;89997;-64
2023/12/25 08:19:14;;;;;;;2.83;2.53;;;22.10;70.80;;;;;;6228670;28;89169;-64
2023/12/25 08:22:16;;;;;;;3.00;2.50;;;22.10;70.60;;;;;;6209986;28;89016;-64
2023/12/25 08:25:18;;;;;;;2.60;2.40;;;22.10;70.60;;;;;;6223677;28;89020;-64
2023/12/25 08:28:20;;;;;;;3.78;2.72;;;22.10;70.50;;;;;;6228523;28;89072;-64
2023/12/25 08:31:24;;;;;;;2.53;2.28;;;22.10;70.50;;;;;;6228342;28;89049;-64
2023/12/25 08:34:26;;;;;;;2.83;2.30;;;22.20;70.50;;;;;;6222228;28;89424;-64
2023/12/25 08:37:28;;;;;;;2.53;2.33;;;22.20;70.40;;;;;;6224995;28;87654;-64
2023/12/25 08:40:30;;;;;;;2.95;2.42;;;22.20;70.30;;;;;;6221441;28;89317;-64
2023/12/25 08:43:32;;;;;;;3.33;2.50;;;22.20;70.30;;;;;;6230729;28;88937;-64
2023/12/25 08:46:35;;;;;;;2.40;2.20;;;22.20;70.20;;;;;;6215066;28;90145;-64
2023/12/25 08:49:37;;;;;;;3.38;2.50;;;22.30;70.10;;;;;;6218598;28;87948;-64
2023/12/25 08:52:39;;;;;;;3.42;2.70;;;22.30;70.10;;;;;;6220238;28;89167;-64
2023/12/25 08:55:41;;;;;;;2.40;2.20;;;22.30;70.10;;;;;;6206533;28;88968;-64
2023/12/25 08:58:43;;;;;;;2.70;2.30;;;22.40;70.10;;;;;;6220616;28;89355;-64
2023/12/25 09:01:47;;;;;;;2.80;2.40;;;22.30;70.00;;;;;;6225297;28;89462;-64
2023/12/25 09:04:49;;;;;;;2.97;2.33;;;22.40;70.00;;;;;;6216469;28;89119;-64
2023/12/25 09:07:51;;;;;;;2.85;2.40;;;22.40;69.90;;;;;;6221159;28;88469;-64
2023/12/25 09:10:53;;;;;;;2.45;2.13;;;22.40;69.80;;;;;;6225860;28;89066;-64
2023/12/25 09:13:55;;;;;;;2.83;2.35;;;22.30;69.80;;;;;;6216974;28;87186;-64
2023/12/25 09:16:59;;;;;;;2.47;2.28;;;22.40;69.80;;;;;;6214273;28;90065;-64
2023/12/25 09:20:01;;;;;;;4.20;3.03;;;22.40;69.80;;;;;;6214102;28;89326;-64
2023/12/25 09:23:03;;;;;;;2.75;2.45;;;22.40;69.80;;;;;;6220311;28;89181;-64
2023/12/25 09:26:05;;;;;;;2.85;2.10;;;22.40;69.80;;;;;;6207358;28;89106;-64
2023/12/25 09:29:09;;;;;;;3.78;2.60;;;22.40;69.80;;;;;;6208910;28;88053;-65
2023/12/25 09:32:12;;;;;;;2.45;2.25;;;22.40;69.80;;;;;;6220715;28;89190;-64
2023/12/25 09:35:15;;;;;;;2.95;2.65;;;22.40;69.80;;;;;;6215949;28;89079;-64
2023/12/25 09:38:17;;;;;;;3.42;2.65;;;22.40;69.80;;;;;;6216122;28;88394;-64
2023/12/25 09:41:19;;;;;;;3.13;2.47;;;22.40;69.80;;;;;;6228372;28;89206;-64
2023/12/25 09:44:21;;;;;;;2.80;2.47;;;22.50;69.80;;;;;;6228770;28;89010;-65
2023/12/25 09:47:25;;;;;;;2.78;2.40;;;22.40;69.80;;;;;;6225396;28;89989;-64
2023/12/25 09:50:27;;;;;;;2.63;2.42;;;22.40;69.80;;;;;;6212290;28;89450;-64
2023/12/25 09:53:29;;;;;;;3.10;2.50;;;22.40;69.80;;;;;;6217692;28;89501;-64
2023/12/25 09:56:36;;;;;;;3.92;2.70;;;22.40;69.80;;;;;;6219254;28;89069;-64
2023/12/25 09:59:40;;;;;;;3.55;2.90;;;22.40;70.70;;;;;;6206591;28;89399;-64
2023/12/25 10:02:48;;;;;;;3.35;2.50;;;22.40;69.80;;;;;;6222399;28;89061;-64
2023/12/25 10:05:50;;;;;;;4.00;2.70;;;22.40;69.80;;;;;;6221340;28;89187;-64
2023/12/25 10:08:52;;;;;;;2.80;2.28;;;22.40;69.80;;;;;;6214372;28;88344;-64
2023/12/25 10:11:54;;;;;;;2.40;2.20;;;22.50;69.80;;;;;;6218581;28;87996;-64
2023/12/25 10:14:56;;;;;;;2.38;2.00;;;22.40;69.60;;;;;;6216858;28;88024;-64
2023/12/25 10:18:05;;;;;;;4.18;2.60;;;22.50;69.70;;;;;;6222525;28;90240;-64
2023/12/25 10:21:09;;;;;;;2.30;2.10;;;22.50;69.70;;;;;;6218593;28;89041;-64
2023/12/25 10:24:13;;;;;;;2.25;2.05;;;22.50;69.80;;;;;;6216568;28;88860;-64
2023/12/25 10:27:15;;;;;;;3.35;2.47;;;22.50;69.60;;;;;;6209696;28;89118;-64
2023/12/25 10:30:18;;;;;;;2.97;2.35;;;22.50;69.60;;;;;;6222312;28;89042;-64
2023/12/25 10:33:22;;;;;;;2.30;2.10;;;22.50;69.70;;;;;;6228637;28;88886;-64
2023/12/25 10:36:25;;;;;;;2.20;2.00;;;22.50;69.70;;;;;;6216480;28;89426;-64
2023/12/25 10:39:31;;;;;;;2.67;2.13;;;22.50;69.70;;;;;;6225114;28;88282;-64
2023/12/25 10:42:33;;;;;;;2.22;2.03;;;22.50;69.80;;;;;;6217829;28;89035;-64
2023/12/25 10:45:36;;;;;;;2.55;2.33;;;22.50;69.80;;;;;;6211578;28;88816;-65
2023/12/25 10:48:40;;;;;;;2.55;2.17;;;22.60;69.80;;;;;;6208598;28;90028;-64
2023/12/25 10:51:43;;;;;;;2.70;2.33;;;22.60;69.80;;;;;;6199525;28;89040;-64
2023/12/25 10:54:47;;;;;;;2.60;2.08;;;22.60;69.80;;;;;;6196961;28;89110;-65
2023/12/25 10:57:49;;;;;;;2.55;2.17;;;22.60;69.80;;;;;;6194950;28;89007;-64
2023/12/25 11:00:56;;;;;;;2.47;2.28;;;22.60;69.80;;;;;;6195120;28;88800;-64
2023/12/25 11:04:01;;;;;;;2.58;2.10;;;22.60;69.80;;;;;;6190200;28;87801;-64
2023/12/25 11:07:04;;;;;;;2.55;2.00;;;22.60;69.80;;;;;;6195071;28;89488;-64
2023/12/25 11:10:10;;;;;;;2.30;2.10;;;22.60;69.80;;;;;;6201140;28;87234;-64
2023/12/25 11:13:13;;;;;;;2.10;1.90;;;22.60;69.80;;;;;;6197547;28;89387;-64
2023/12/25 11:16:16;;;;;;;2.63;2.25;;;22.70;69.90;;;;;;6218784;28;89423;-64
2023/12/25 11:19:20;;;;;;;2.28;2.05;;;22.60;69.80;;;;;;6214470;28;90024;-64
2023/12/25 11:22:29;;;;;;;2.13;1.92;;;22.60;69.70;;;;;;6225662;28;89384;-65
2023/12/25 11:25:33;;;;;;;2.20;2.00;;;22.60;69.70;;;;;;6227383;28;89274;-64
2023/12/25 11:28:36;;;;;;;2.63;2.20;;;22.60;69.70;;;;;;6216146;28;89825;-65
2023/12/25 11:31:43;;;;;;;2.20;2.00;;;22.70;69.80;;;;;;6219350;28;88993;-64
2023/12/25 11:34:49;;;;;;;4.68;2.70;;;22.60;69.70;;;;;;6228181;28;88962;-64
2023/12/25 11:37:51;;;;;;;2.33;2.00;;;22.60;69.70;;;;;;6227440;28;88270;-64
2023/12/25 11:40:53;;;;;;;2.10;1.88;;;22.60;69.70;;;;;;6221298;28;87249;-64
2023/12/25 11:44:05;;;;;;;2.15;1.92;;;22.70;69.80;;;;;;6217747;28;89184;-65
2023/12/25 11:47:07;;;;;;;2.05;1.85;;;22.60;69.80;;;;;;6220233;28;89072;-65
2023/12/25 11:50:12;;;;;;;2.95;2.22;;;22.60;69.70;;;;;;6214711;28;89928;-65
2023/12/25 11:53:36;;;;;;;2.35;2.08;;;22.60;69.70;;;;;;6216533;28;89544;-64
2023/12/25 11:56:39;;;;;;;2.75;2.13;;;22.70;69.80;;;;;;6208898;28;89024;-64
2023/12/25 11:59:42;;;;;;;2.03;1.83;;;22.70;69.80;;;;;;6220278;28;89172;-64
2023/12/25 12:02:44;;;;;;;2.30;2.03;;;22.60;69.70;;;;;;6213181;28;88126;-64
2023/12/25 12:05:47;;;;;;;2.67;2.10;;;22.70;69.70;;;;;;6221760;28;89369;-64
2023/12/25 12:08:50;;;;;;;2.28;1.80;;;22.60;69.60;;;;;;6226215;28;89170;-64
2023/12/25 12:11:52;;;;;;;2.65;2.20;;;22.70;69.80;;;;;;6224054;28;88373;-64
2023/12/25 12:14:54;;;;;;;2.00;1.77;;;22.70;69.80;;;;;;6216502;28;89114;-64
2023/12/25 12:17:56;;;;;;;2.22;2.03;;;22.70;69.80;;;;;;6211797;28;88110;-64
2023/12/25 12:21:00;;;;;;;2.33;1.98;;;22.70;69.70;;;;;;6199397;28;90022;-64
2023/12/25 12:24:03;;;;;;;2.03;1.80;;;22.70;69.70;;;;;;6221188;28;89107;-64
2023/12/25 12:27:08;;;;;;;2.95;2.10;;;22.70;69.60;;;;;;6219219;28;89417;-64
2023/12/25 12:30:10;;;;;;;3.15;2.25;;;22.70;69.60;;;;;;6207639;28;89275;-64
2023/12/25 12:33:13;;;;;;;2.10;1.90;;;22.70;69.70;;;;;;6218204;28;89420;-64
2023/12/25 12:36:18;;;;;;;2.10;1.90;;;22.70;69.60;;;;;;6220502;28;89019;-64
2023/12/25 12:39:20;;;;;;;2.30;2.10;;;22.70;69.60;;;;;;6218421;28;88227;-64
2023/12/25 12:42:22;;;;;;;2.88;2.33;;;22.70;69.60;;;;;;6230111;28;88688;-64
2023/12/25 12:45:24;;;;;;;3.63;2.40;;;22.70;69.60;;;;;;6217879;28;89038;-64
2023/12/25 12:48:26;;;;;;;2.80;2.08;;;22.70;69.70;;;;;;6210125;28;89068;-64
2023/12/25 12:51:30;;;;;;;2.42;2.20;;;22.70;69.80;;;;;;6218804;28;88100;-64
2023/12/25 12:54:32;;;;;;;2.80;2.10;;;22.70;69.60;;;;;;6214888;28;90188;-64
2023/12/25 12:57:34;;;;;;;2.03;1.83;;;22.70;70.60;;;;;;6207824;28;89090;-64
2023/12/25 13:00:36;;;;;;;2.13;1.90;;;22.80;69.80;;;;;;6208907;28;88974;-64
2023/12/25 13:03:37;;;;;;;2.38;2.03;;;22.80;69.80;;;;;;6215046;28;89369;-64
2023/12/25 13:06:41;;;;;;;2.28;1.98;;;22.80;69.80;;;;;;6224435;28;89036;-65
2023/12/25 13:09:43;;;;;;;2.72;2.22;;;22.80;69.80;;;;;;6216296;28;88987;-64
2023/12/25 13:12:45;;;;;;;3.28;2.13;;;22.70;69.70;;;;;;6220543;28;88740;-64
2023/12/25 13:15:47;;;;;;;2.65;2.17;;;22.70;69.70;;;;;;6227951;28;88608;-64
2023/12/25 13:18:49;;;;;;;3.97;2.53;;;22.80;69.80;;;;;;6214948;28;89541;-64
2023/12/25 13:21:53;;;;;;;2.30;2.00;;;22.80;69.80;;;;;;6223644;28;90368;-64
2023/12/25 13:24:55;;;;;;;2.15;1.92;;;22.80;69.80;;;;;;6213736;28;89425;-64
2023/12/25 13:27:57;;;;;;;2.60;2.13;;;22.80;69.80;;;;;;6225445;28;88914;-64
2023/12/25 13:30:59;;;;;;;2.10;1.90;;;22.70;69.60;;;;;;6220077;28;88054;-64
2023/12/25 13:34:01;;;;;;;2.30;2.10;;;22.80;69.80;;;;;;6219238;28;87946;-64
2023/12/25 13:37:06;;;;;;;2.40;1.92;;;22.80;69.70;;;;;;6208678;28;87977;-64
2023/12/25 13:40:09;;;;;;;2.35;1.90;;;22.80;69.70;;;;;;6218470;28;89290;-64
2023/12/25 13:43:11;;;;;;;2.95;2.03;;;22.80;69.70;;;;;;6211358;28;88490;-64
2023/12/25 13:46:13;;;;;;;2.67;1.98;;;22.80;69.70;;;;;;6215568;28;89039;-64
2023/12/25 13:49:15;;;;;;;3.33;2.30;;;22.80;69.70;;;;;;6227836;28;89016;-64
2023/12/25 13:52:19;;;;;;;2.53;1.95;;;22.80;69.70;;;;;;6218412;28;89367;-64
2023/12/25 13:55:21;;;;;;;2.22;2.03;;;22.80;69.70;;;;;;6223772;28;89178;-64
2023/12/25 13:58:23;;;;;;;2.10;1.90;;;22.70;69.60;;;;;;6214542;28;89231;-64
2023/12/25 14:01:25;;;;;;;2.30;2.08;;;22.80;69.60;;;;;;6219650;28;89083;-64
2023/12/25 14:04:27;;;;;;;2.60;2.10;;;22.80;69.50;;;;;;6207583;28;89106;-64
2023/12/25 14:07:30;;;;;;;2.40;1.92;;;22.80;69.40;;;;;;6221958;28;89051;-64
2023/12/25 14:10:33;;;;;;;3.50;2.53;;;22.80;69.40;;;;;;6227170;28;88950;-64
2023/12/25 14:13:35;;;;;;;3.08;2.20;;;22.80;69.30;;;;;;6229756;28;88324;-64
2023/12/25 14:16:37;;;;;;;3.25;2.35;;;22.80;69.30;;;;;;6211256;28;89135;-64
2023/12/25 14:19:39;;;;;;;3.35;2.63;;;22.80;69.30;;;;;;6214565;28;89083;-64
2023/12/25 14:22:43;;;;;;;4.55;2.95;;;22.80;69.30;;;;;;6215651;28;90055;-65
2023/12/25 14:25:45;;;;;;;4.28;3.33;;;22.80;69.30;;;;;;6218791;28;89050;-64
2023/12/25 14:28:48;;;;;;;5.07;3.72;;;22.80;69.20;;;;;;6216339;28;89147;-64
2023/12/25 14:31:51;;;;;;;5.60;3.97;;;22.80;69.20;;;;;;6228371;28;89320;-64
2023/12/25 14:34:52;;;;;;;5.60;4.22;;;22.80;69.30;;;;;;6216389;28;88978;-64
2023/12/25 14:37:56;;;;;;;6.22;4.57;;;22.80;69.20;;;;;;6223523;28;88502;-64
2023/12/25 14:40:58;;;;;;;6.30;4.45;;;22.80;69.20;;;;;;6224174;28;88986;-64
2023/12/25 14:44:00;;;;;;;5.90;4.30;;;22.80;69.30;;;;;;6206296;28;88222;-64
2023/12/25 14:47:02;;;;;;;6.55;4.80;;;22.80;69.30;;;;;;6218753;28;89095;-64
2023/12/25 14:50:07;;;;;;;8.88;5.07;;;22.80;69.30;;;;;;6216046;28;87189;-64
2023/12/25 14:53:10;;;;;;;8.65;5.43;;;22.80;69.30;;;;;;6218276;28;89061;-64
2023/12/25 14:56:12;;;;;;;6.55;5.18;;;22.80;69.30;;;;;;6233335;28;89224;-64
2023/12/25 14:59:14;;;;;;;9.25;5.70;;;22.80;69.30;;;;;;6229962;28;88987;-64
2023/12/25 15:02:16;;;;;;;8.50;5.75;;;22.80;69.30;;;;;;6219413;28;87932;-64
2023/12/25 15:05:18;;;;;;;8.25;5.57;;;22.80;69.30;;;;;;6212731;28;89144;-64
2023/12/25 15:08:22;;;;;;;7.45;5.47;;;22.80;69.30;;;;;;6219720;28;88311;-64
2023/12/25 15:11:24;;;;;;;7.85;5.68;;;22.80;69.20;;;;;;6208752;28;89040;-64
2023/12/25 15:14:26;;;;;;;6.78;5.40;;;22.80;69.30;;;;;;6218631;28;88303;-64
2023/12/25 15:17:28;;;;;;;7.63;5.78;;;22.80;69.30;;;;;;6235443;28;89175;-64
2023/12/25 15:20:30;;;;;;;9.35;6.03;;;22.80;69.30;;;;;;6210568;28;89073;-64
2023/12/25 15:23:33;;;;;;;9.20;6.03;;;22.80;69.20;;;;;;6220764;28;89968;-65
2023/12/25 15:26:36;;;;;;;8.13;5.80;;;22.80;69.30;;;;;;6224495;28;89049;-65
2023/12/25 15:29:38;;;;;;;7.90;5.57;;;22.80;69.30;;;;;;6222866;28;89312;-65
2023/12/25 15:32:40;;;;;;;8.25;5.88;;;22.80;69.20;;;;;;6219660;28;89065;-64
2023/12/25 15:35:42;;;;;;;7.97;5.45;;;22.80;69.20;;;;;;6224325;28;89563;-65
2023/12/25 15:38:46;;;;;;;8.00;6.22;;;22.90;69.30;;;;;;6215145;28;89081;-64
2023/12/25 15:41:48;;;;;;;9.63;6.65;;;22.80;70.10;;;;;;6219646;28;89164;-64
2023/12/25 15:44:50;;;;;;;9.48;5.82;;;22.90;69.30;;;;;;6221583;28;87579;-64
2023/12/25 15:47:52;;;;;;;8.32;6.15;;;22.80;69.30;;;;;;6217311;28;89139;-65
2023/12/25 15:50:54;;;;;;;8.40;6.22;;;22.80;69.30;;;;;;6233816;28;89052;-64